Weather observations for the past three days for
Richland Airport
Metric (Imperial)
Date Time (pdt) Wind (kph) Vis. (km) Weather Sky Cond. Temperature (ºC) Relative Humidity Wind Chill (°C) Heat Index (°C) Pressure Precipitation (cm)
Air Dwpt 6 hour altimeter (cm) sea level (mb) 1 hr 3 hr 6 hr
Max. Min.
08 18:15 NW 20 16.09 Fair CLR 26.6 0.3 18% 26 76.05 0.0
08 17:55 W 13 16.09 Fair CLR 27.8 -0.1 16% 27 76.02 0.0
08 17:35 NW 19 16.09 Fair CLR 28.1 -0.2 16% 27 76.02 0.0
08 17:15 NW 20 16.09 Fair CLR 28.7 -0.8 15% 27 76 0.0
08 16:55 SW 20 G 31 16.09 Fair CLR 28.9 -2.1 29.3 22.6 13% 27 76 0.0
08 16:35 SW 22 G 28 16.09 Fair CLR 28.9 -0.8 14% 27 76 0.0
08 16:15 W 13 16.09 Fair CLR 28.5 -1.1 14% 27 76 0.0
08 15:55 SW 17 16.09 Fair CLR 28.4 -1.6 14% 27 76.02 0.0
08 15:35 SW 19 G 30 16.09 Fair CLR 28.7 -1.2 14% 27 76.02 0.0
08 15:15 SW 9 G 28 16.09 Fair CLR 27.9 -0.1 16% 27 76.02 0.0
08 14:55 SW 17 16.09 Fair CLR 27.9 0 16% 27 76.05 0.0
08 14:35 W 11 G 28 16.09 Fair CLR 27.5 -0.1 16% 26 76.05 0.0
08 14:15 SW 20 16.09 Fair CLR 27.3 0 17% 26 76.05 0.0
08 13:55 W 22 G 28 8.05 Fair with Haze CLR 27.2 0 17% 26 76.05 0.0
08 13:35 W 13 16.09 Fair CLR 25.9 1.7 21% 25 76.05 0.0
08 13:15 S 13 16.09 Fair CLR 25.9 1.8 21% 25 76.05 0.0
08 12:55 S 13 16.09 Fair CLR 25.6 1.2 20% 25 76.05 0.0
08 12:35 SW 13 16.09 Fair CLR 26.1 0.5 19% 26 76.05 0.0
08 12:15 S 15 16.09 Fair CLR 25.3 1.1 21% 25 76.05 0.0
08 11:55 SW 11 16.09 Fair CLR 24.1 1.7 23% 25 76.07 0.0
08 11:35 SW 13 16.09 Fair CLR 24.4 3.2 25% 25 76.1 0.0
08 11:15 SW 11 16.09 Fair CLR 23.6 3.7 27% 76.1 0.0
08 10:55 S 9 16.09 Fair CLR 22.7 4.2 22.7 12.6 30% 76.12 0.0
08 10:35 S 13 16.09 Fair CLR 21.9 3.4 30% 76.12 0.0
08 10:15 SW 11 16.09 Fair CLR 21.7 2.6 29% 76.12 0.0
08 09:55 SW 11 16.09 Fair CLR 21.7 3.2 30% 76.1 0.0
08 09:35 SW 13 16.09 Fair CLR 20.7 4.2 34% 76.1 0.0
08 09:15 S 11 16.09 Fair CLR 20 5.3 38% 76.1 0.0
08 08:55 S 7 16.09 Fair CLR 18.8 5 40% 76.07 0.0
08 08:35 SW 9 16.09 Fair CLR 18.3 4.8 41% 76.07 0.0
08 08:15 S 7 16.09 Fair CLR 17.4 4.5 43% 76.07 0.0
08 07:55 S 6 16.09 Fair CLR 16.8 4.7 45% 76.07 0.0
08 07:35 SW 9 16.09 Fair CLR 16.3 5 47% 76.07 0.0
08 07:15 Calm 16.09 Fair CLR 16.1 4.7 47% 76.05 0.0
08 06:55 S 6 16.09 Fair CLR 16.1 4.3 46% 76.05 0.0
08 06:35 S 6 16.09 Fair CLR 15.6 4.2 47% 76.02 0.0
08 06:15 S 9 16.09 Fair CLR 14.5 4.2 50% 76 0.0
08 05:55 S 15 16.09 Fair CLR 14.7 4 49% 76 0.0
08 05:35 S 6 16.09 Fair CLR 12.8 3.3 53% 76 0.0
08 05:15 Calm 16.09 Fair CLR 14.1 3 47% 76 0.0
08 04:55 Calm 16.09 Fair CLR 14.6 2.7 19 13.5 45% 76 0.0
08 04:35 S 6 16.09 Fair CLR 14.7 2.5 44% 75.97 0.0
08 04:15 S 9 16.09 Fair CLR 14.6 2.1 43% 75.97 0.0
08 03:55 S 6 16.09 Fair CLR 15.1 1.7 41% 75.97 0.0
08 03:35 S 7 16.09 Fair CLR 14.9 1.6 41% 75.97 0.0
08 03:15 S 9 16.09 Fair CLR 14.8 1 39% 75.95 0.0
08 02:55 S 7 16.09 Fair CLR 15.1 0.3 37% 75.95 0.0
08 02:35 S 11 16.09 Fair CLR 15.2 0.1 36% 75.95 0.0
08 02:15 S 9 16.09 Fair CLR 15.5 -0.2 34% 75.95 0.0
08 01:55 S 9 16.09 Fair CLR 16.4 -1 31% 75.95 0.0
08 01:35 S 13 16.09 Fair CLR 16.5 -0.5 32% 75.95 0.0
08 01:15 Calm 16.09 Fair CLR 16.6 0 33% 75.95 0.0
08 00:55 Calm 16.09 Fair CLR 14.3 3 47% 75.92 0.0
08 00:35 Calm 16.09 Fair CLR 14.9 3.4 46% 75.92 0.0
08 00:15 W 6 16.09 Fair CLR 16.5 3.3 42% 75.92 0.0
07 23:55 Calm 16.09 Fair CLR 16.8 3 40% 75.92 0.0
07 23:35 SW 9 16.09 Fair CLR 18.5 2.6 35% 75.9 0.0
07 23:15 S 7 16.09 Fair CLR 17.7 3.6 39% 75.9 0.0
07 22:55 Calm 16.09 Fair CLR 17.3 6.2 27.9 16.9 48% 75.9 0.0
07 22:35 Calm 16.09 Fair CLR 18.4 6.5 46% 75.9 0.0
07 22:15 Calm 16.09 Fair CLR 17.9 6.8 48% 75.87 0.0
07 21:55 Calm 16.09 Fair CLR 19.4 6.9 44% 75.87 0.0
07 21:35 Calm 16.09 Fair CLR 19.4 6.6 43% 75.87 0.0
07 21:15 SE 7 16.09 Fair CLR 22.3 5.7 34% 75.87 0.0
07 20:55 S 7 16.09 Fair CLR 22 6 36% 75.87 0.0
07 20:35 Calm 16.09 Fair CLR 22.6 4.6 31% 75.87 0.0
07 20:15 S 6 16.09 Fair CLR 24.6 3.3 25% 25 75.87 0.0
07 19:55 SE 6 16.09 Fair CLR 25.6 2.6 22% 25 75.84 0.0
07 19:35 S 7 16.09 Fair CLR 25.2 4.5 26% 25 75.84 0.0
07 19:15 S 9 16.09 Fair CLR 26.5 2.9 22% 26 75.84 0.0
07 18:55 E 7 16.09 Fair CLR 27 2.4 20% 26 75.87 0.0
07 18:35 Calm 16.09 Fair CLR 27 1.2 19% 26 75.84 0.0
07 18:15 Calm 16.09 Fair CLR 27.5 1.5 19% 26 75.87 0.0
07 17:55 S 6 16.09 Fair CLR 27.6 2.4 20% 26 75.9 0.0
07 17:35 S 9 16.09 Fair CLR 27.4 2.5 20% 26 75.9 0.0
07 17:15 SW 9 16.09 Fair CLR 27.4 2.1 19% 26 75.9 0.0
07 16:55 SW 7 16.09 Fair CLR 27.9 2.4 27.9 23.2 19% 27 75.9 0.0
07 16:35 SW 6 16.09 Fair CLR 27.8 2.9 20% 27 75.9 0.0
07 16:15 S 6 16.09 Fair CLR 27.8 2.9 20% 27 75.92 0.0
07 15:55 S 7 16.09 Fair CLR 27.4 3.1 21% 26 75.95 0.0
07 15:35 SW 7 16.09 Fair CLR 27.3 3.4 21% 26 75.97 0.0
07 15:15 Calm 16.09 Fair CLR 26.9 3.4 22% 26 76 0.0
07 14:55 SE 7 16.09 Fair CLR 26.9 3 21% 26 76.02 0.0
07 14:35 SW 13 16.09 Fair CLR 26.5 3.7 23% 26 76.02 0.0
07 14:15 SW 11 16.09 Fair CLR 26.7 4.2 24% 26 76.05 0.0
07 13:55 SW 9 16.09 Fair CLR 26.4 3.9 23% 26 76.07 0.0
07 13:35 SE 6 16.09 Fair CLR 25.4 3.6 24% 25 76.07 0.0
07 13:15 S 11 16.09 Fair CLR 26.1 4.1 24% 26 76.1 0.0
07 12:55 S 11 G 28 16.09 Fair CLR 25.7 4.6 26% 26 76.12 0.0
07 12:35 S 17 G 26 16.09 Fair CLR 24.9 5.5 29% 25 76.12 0.0
07 12:15 S 11 16.09 Fair CLR 24.6 6.5 31% 25 76.12 0.0
07 11:55 S 11 G 26 16.09 Fair CLR 24.3 6.3 32% 25 76.12 0.0
07 11:35 S 17 16.09 Fair CLR 24.4 6.7 32% 25 76.15 0.0
07 11:15 S 15 16.09 Fair CLR 23.9 6.7 33% 25 76.15 0.0
07 10:55 SW 6 16.09 Fair CLR 23.1 5.3 23.8 9.7 32% 76.15 0.0
07 10:35 SE 6 16.09 Fair CLR 23.1 5.3 32% 76.15 0.0
07 10:15 Calm 16.09 Fair CLR 22.5 4.8 32% 76.17 0.0
07 09:55 SW 9 16.09 Fair CLR 21.9 4.7 33% 76.17 0.0
07 09:35 SW 7 16.09 Fair CLR 21.1 4.6 34% 76.2 0.0
07 09:15 SW 6 16.09 Fair CLR 19.9 5.7 40% 76.2 0.0
07 08:55 SW 6 16.09 Fair CLR 19.6 6.9 44% 76.2 0.0
07 08:35 Calm 16.09 Fair CLR 19 7.9 49% 76.17 0.0
07 08:15 SW 6 16.09 Fair CLR 18.5 7.5 49% 76.17 0.0
07 07:55 Calm 16.09 Fair CLR 17.3 8.5 56% 76.17 0.0
07 07:35 S 6 16.09 Fair CLR 16.6 9.4 63% 76.17 0.0
07 07:15 S 6 16.09 Fair CLR 15.4 10 70% 76.15 0.0
07 06:55 Calm 16.09 Fair CLR 14.2 10 76% 76.15 0.0
07 06:35 Calm 16.09 Fair CLR 11.8 9.7 87% 76.15 0.0
07 06:15 SW 6 16.09 Fair CLR 10.9 9.3 90% 76.12 0.0
07 05:55 Calm 16.09 Fair CLR 9.8 8.5 92% 76.12 0.0
07 05:35 N 6 16.09 Fair CLR 10.4 8.9 91% 76.12 0.0
07 05:15 NW 7 16.09 Fair CLR 10.7 8.6 87% 76.1 0.0
07 04:55 Calm 16.09 Fair CLR 10.8 8.4 21.4 10.8 85% 76.07 0.0
07 04:35 SW 6 16.09 Fair CLR 11.9 8.7 81% 76.07 0.0
07 04:15 S 6 16.09 Fair CLR 12.7 8.6 76% 76.07 0.0
07 03:55 E 6 16.09 Fair CLR 14.7 9 69% 76.1 0.0
07 03:35 E 9 16.09 Fair CLR 14.1 8.7 70% 76.07 0.0
07 03:15 NE 6 16.09 Fair CLR 13.2 8.8 75% 76.07 0.0
07 02:55 SW 7 16.09 Fair CLR 13 9 77% 76.05 0.0
07 02:35 SW 7 16.09 Fair CLR 12.1 8.5 79% 76.05 0.0
07 02:15 Calm 16.09 Fair CLR 13.9 8.4 70% 76.07 0.0
07 01:55 S 6 16.09 Fair CLR 13.5 8 70% 76.05 0.0
07 01:35 Calm 16.09 Fair CLR 14.8 8 64% 76.05 0.0
07 01:15 Calm 16.09 Fair CLR 16.6 8.1 57% 76.05 0.0
07 00:55 SW 13 16.09 Fair CLR 14.9 7.2 60% 76.02 0.0
07 00:35 Calm 16.09 Fair CLR 17.4 6.6 49% 76.05 0.0
07 00:15 N 6 16.09 Fair CLR 17.7 7.1 50% 76.02 0.0
06 23:55 NW 11 16.09 Fair CLR 16.1 9 63% 76 0.0
06 23:35 N 9 16.09 Fair CLR 18.9 8.8 52% 75.97 0.0
06 23:15 S 9 16.09 Fair CLR 18.7 8.3 51% 75.95 0.0
06 22:55 SE 7 16.09 Fair CLR 21.6 6 30 18.5 36% 75.97 0.0
06 22:35 Calm 16.09 Fair CLR 18.7 6.6 45% 75.97 0.0
06 22:15 S 11 16.09 Fair CLR 18.6 6.3 45% 75.97 0.0
06 21:55 Calm 16.09 Fair CLR 21.6 5.6 35% 75.95 0.0
06 21:35 W 6 16.09 Fair CLR 21.3 5.4 36% 75.92 0.0
06 21:15 NW 7 16.09 Fair CLR 21.2 5.9 37% 75.92 0.0
06 20:55 NW 13 16.09 Fair CLR 21.6 6.7 38% 75.9 0.0
06 20:35 NW 15 16.09 Fair CLR 22.2 5.8 35% 75.9 0.0
06 20:15 NW 13 16.09 Fair CLR 22.2 6.8 37% 75.87 0.0
06 19:55 N 15 16.09 Fair CLR 25 6 30% 25 75.84 0.0
06 19:35 NW 15 16.09 Fair CLR 25 6.7 31% 25 75.84 0.0
06 19:15 NW 20 G 28 16.09 Fair CLR 25.8 6.3 29% 26 75.82 0.0
06 18:55 NW 17 G 31 16.09 Fair CLR 26.9 6.2 27% 26 75.82 0.0
06 18:35 NW 17 G 31 16.09 Fair CLR 26.8 6.4 27% 26 75.79 0.0
06 18:15 NW 15 16.09 Fair CLR 27.4 7 27% 27 75.79 0.0
06 17:55 NW 15 16.09 Partly Cloudy SCT110 28.5 9.6 31% 28 75.79 0.0
06 17:35 S 19 G 28 16.09 Fair CLR 28.7 11.5 34% 28 75.74 0.0
06 17:15 S 20 G 28 16.09 Fair CLR 29.2 11.3 33% 28 75.72 0.0
06 16:55 S 15 16.09 Fair CLR 30 11.1 31.6 26.5 31% 29 75.72 0.0
06 16:35 S 20 16.09 Fair CLR 30.3 10.9 30% 29 75.72 0.0
06 16:15 S 24 G 31 16.09 Fair CLR 31.1 11.1 29% 30 75.74 0.0
06 15:55 S 22 G 31 16.09 Fair CLR 30.9 9.5 26% 29 75.77 0.0
06 15:35 S 17 G 30 16.09 Fair CLR 30.5 9.2 27% 29 75.79 0.0
06 15:15 S 22 16.09 Fair CLR 30.5 7.5 24% 29 75.79 0.0
06 14:55 S 22 G 31 16.09 Fair CLR 31.2 8 23% 29 75.82 0.0
06 14:35 S 22 G 31 16.09 Fair CLR 30.1 9.1 27% 29 75.84 0.0
06 14:15 S 20 G 33 16.09 Fair CLR 30.2 9.5 28% 29 75.84 0.0
06 13:55 S 30 G 37 16.09 Fair CLR 30.4 9.8 28% 29 75.84 0.0
06 13:35 S 22 G 37 16.09 Fair CLR 29.9 10.3 30% 29 75.87 0.0
06 13:15 S 24 G 35 16.09 Fair CLR 30.2 10.5 29% 29 75.87 0.0
06 12:55 S 30 G 35 16.09 Fair CLR 29.5 9.7 29% 28 75.9 0.0
06 12:35 S 20 G 28 16.09 Fair CLR 29.2 10.3 31% 28 75.9 0.0
06 12:15 S 20 G 35 16.09 Fair CLR 28.9 10.6 32% 28 75.92 0.0
06 11:55 S 26 G 33 16.09 Fair CLR 27.8 10.5 34% 27 75.92 0.0
06 11:35 S 24 16.09 Fair CLR 27 10 34% 27 75.95 0.0
06 11:15 S 24 G 30 16.09 Fair CLR 26.9 9.9 34% 27 75.95 0.0
06 10:55 S 20 G 28 16.09 Fair CLR 26.6 10.6 26.6 13 37% 26 75.97 0.0
06 10:35 S 20 G 28 16.09 Fair CLR 25.7 10.9 40% 26 75.97 0.0
06 10:15 S 19 G 28 16.09 Fair CLR 25 11.1 42% 26 75.97 0.0
06 09:55 S 19 16.09 Fair CLR 24.2 11.3 44% 25 76 0.0
06 09:35 S 22 16.09 Fair CLR 23.7 11 45% 76 0.0
06 09:15 S 19 G 26 16.09 Fair CLR 23.1 11.2 47% 76 0.0
06 08:55 SW 15 16.09 Fair CLR 22.6 11.3 49% 76 0.0
06 08:35 SW 11 16.09 Fair CLR 22.1 10.9 49% 76 0.0
06 08:15 S 13 16.09 Fair CLR 21.8 10.7 49% 76 0.0
06 07:55 SW 9 16.09 Fair CLR 21.1 10.7 52% 76 0.0
06 07:35 S 6 16.09 Fair CLR 20.1 11 56% 76 0.0
06 07:15 SW 6 16.09 Fair CLR 18.9 10.9 60% 75.97 0.0
06 06:55 S 6 16.09 Fair CLR 17.7 10.5 63% 75.97 0.0
06 06:35 S 11 16.09 Fair CLR 16.7 10.6 67% 75.95 0.0
06 06:15 S 7 16.09 Fair CLR 16.1 10.6 70% 75.95 0.0
06 05:55 SW 9 16.09 Fair CLR 15.8 10.4 70% 75.92 0.0
06 05:35 SW 6 16.09 Fair CLR 13.7 10 79% 75.92 0.0
06 05:15 Calm 16.09 Fair CLR 14.4 10.2 76% 75.9 0.0
06 04:55 Calm 16.09 Fair CLR 13.4 9.8 19.9 13.4 79% 75.9 0.0
06 04:35 Calm 16.09 Fair CLR 15.1 10.7 75% 75.87 0.0
06 04:15 Calm 16.09 Fair CLR 14.5 10.7 78% 75.84 0.0
06 03:55 Calm 16.09 Fair CLR 15.2 10.9 76% 75.84 0.0
06 03:35 Calm 16.09 Fair CLR 15.3 11.1 76% 75.84 0.0
06 03:15 E 6 16.09 Fair CLR 15 11.4 79% 75.84 0.0
06 02:55 Calm 16.09 Fair CLR 15.6 11.4 76% 75.84 0.0
06 02:35 Calm 16.09 Fair CLR 16.4 11.7 74% 75.82 0.0
06 02:15 Calm 16.09 Fair CLR 16.6 11.5 72% 75.82 0.0
06 01:55 Calm 16.09 Fair CLR 15.8 11.6 76% 75.82 0.0
06 01:35 NW 6 16.09 Fair CLR 17.8 12 69% 75.82 0.0
06 01:15 Calm 16.09 Fair CLR 18.2 11.7 66% 75.79 0.0
06 00:55 SE 6 16.09 Fair CLR 18.5 12.2 67% 75.79 0.0
06 00:35 E 13 16.09 Fair CLR 19 12.1 64% 75.77 0.0
06 00:15 Calm 16.09 Fair CLR 19 11 60% 75.79 0.0
05 23:55 E 7 16.09 Fair CLR 19.9 10.5 55% 75.77 0.0
05 23:35 Calm 16.09 Fair CLR 18.1 10 59% 75.77 0.0
05 23:15 Calm 16.09 Fair CLR 18.5 10.2 59% 75.77 0.0
05 22:55 Calm 16.09 Fair CLR 18.7 8.7 31.2 18.6 52% 75.74 0.0
05 22:35 Calm 16.09 Fair CLR 21.1 8.4 44% 75.74 0.0
05 22:15 SE 6 16.09 Fair CLR 20.8 8.2 44% 75.74 0.0
05 21:55 S 9 16.09 Fair CLR 22.4 7.8 39% 75.72 0.0
05 21:35 SE 6 16.09 Fair CLR 21.3 9.7 48% 75.72 0.0
05 21:15 S 7 16.09 Fair CLR 21.3 10.1 49% 75.72 0.0
05 20:55 S 7 16.09 Fair CLR 22.8 9.6 43% 75.69 0.0
05 20:35 S 6 16.09 Fair CLR 25.8 7.8 32% 26 75.69 0.0
05 20:15 Calm 16.09 Fair CLR 26.5 7.6 30% 26 75.67 0.0
05 19:55 Calm 16.09 Fair CLR 27.7 8.1 29% 27 75.67 0.0
05 19:35 Calm 16.09 Fair CLR 29.3 6.6 24% 28 75.67 0.0
05 19:15 Calm 16.09 Fair CLR 29.7 5.6 22% 28 75.67 0.0
05 18:55 NE 6 16.09 Fair CLR 30 5.6 21% 28 75.67 0.0
05 18:35 N 6 16.09 Fair CLR 30.4 5.2 20% 29 75.67 0.0
Date Time (pdt) Wind (kph) Vis. (km) Weather Sky Cond. Air Dwpt Max. Min. Relative Humidity Wind Chill (°C) Heat Index (°C) altimeter (cm) sea level (mb) 1 hr 3 hr 6 hr
6 hour
Temperature (ºC) Pressure Precipitation (cm)